Time;durP1;ratioP1;P1;durP2;ratioP2;P2;SDS_P1;SDS_P2;PMS_P1;PMS_P2;Temp;Humidity;BMP_temperature;BMP_pressure;BME280_temperature;BME280_humidity;BME280_pressure;Samples;Min_cycle;Max_cycle;Signal;HPM_P1;HPM_P2
2022/09/23 21:18:34;;;;;;;;;;;17.10;93.50;;;;;;6083212;23;19932;-73
2022/09/23 21:21:01;;;;;;;;;;;17.20;93.40;;;;;;6091417;23;20333;-73
2022/09/23 21:23:31;;;;;;;;;;;17.20;93.50;;;;;;6066099;23;20555;-73
2022/09/23 21:26:00;;;;;;;;;;;17.20;93.40;;;;;;6089959;23;19909;-74
2022/09/23 21:28:34;;;;;;;;;;;17.20;93.30;;;;;;6091886;23;19909;-72
2022/09/23 21:31:01;;;;;;;;;;;17.30;93.20;;;;;;6091811;23;19911;-72
2022/09/23 21:33:27;;;;;;;;;;;17.20;93.00;;;;;;6089891;23;19916;-72
2022/09/23 21:35:54;;;;;;;;;;;17.30;93.10;;;;;;6091245;23;19913;-72
2022/09/23 21:38:22;;;;;;;;;;;17.30;93.10;;;;;;6091786;23;19912;-72
2022/09/23 21:40:57;;;;;;;;;;;17.40;93.00;;;;;;6091505;23;19936;-73
2022/09/23 21:43:24;;;;;;;;;;;17.50;92.90;;;;;;6091516;23;19908;-71
2022/09/23 21:45:58;;;;;;;;;;;17.60;92.60;;;;;;6092152;23;20305;-72
2022/09/23 21:48:28;;;;;;;;;;;17.70;92.50;;;;;;6091906;23;19913;-73
2022/09/23 21:50:58;;;;;;;;;;;17.70;92.00;;;;;;6092879;23;19913;-72
2022/09/23 21:53:25;;;;;;;;;;;17.70;91.80;;;;;;6094187;23;20024;-72
2022/09/23 21:55:52;;;;;;;;;;;17.70;91.70;;;;;;6093027;23;19920;-72
2022/09/23 21:58:18;;;;;;;;;;;17.70;91.50;;;;;;6093461;23;19984;-70
2022/09/23 22:00:45;;;;;;;;;;;17.70;91.50;;;;;;6094821;23;19905;-71
2022/09/23 22:03:11;;;;;;;;;;;17.70;91.50;;;;;;6093428;23;19980;-72
2022/09/23 22:05:42;;;;;;;;;;;17.80;91.20;;;;;;6093022;23;19960;-73
2022/09/23 22:08:08;;;;;;;;;;;17.80;91.30;;;;;;6093691;23;20322;-73
2022/09/23 22:10:36;;;;;;;;;;;17.80;91.20;;;;;;6093989;23;19912;-71
2022/09/23 22:13:03;;;;;;;;;;;17.80;91.10;;;;;;6093412;23;19909;-74
2022/09/23 22:15:34;;;;;;;;;;;17.90;91.30;;;;;;6094412;23;19917;-73
2022/09/23 22:18:01;;;;;;;;;;;17.80;91.10;;;;;;6093187;23;19918;-74
2022/09/23 23:18:42;;;;;;;;;;;18.80;89.40;;;;;;6107602;23;19923;-70
2022/09/23 23:21:11;;;;;;;;;;;18.80;89.10;;;;;;6090461;23;20222;-71
2022/09/23 23:23:41;;;;;;;;;;;18.70;86.50;;;;;;6092225;23;19960;-70
2022/09/23 23:26:08;;;;;;;;;;;18.70;86.70;;;;;;6092485;23;20583;-70
2022/09/23 23:28:35;;;;;;;;;;;18.40;86.00;;;;;;6093331;23;19901;-69
2022/09/23 23:31:02;;;;;;;;;;;18.30;85.90;;;;;;6094697;23;19901;-75
2022/09/23 23:33:29;;;;;;;;;;;18.20;86.30;;;;;;6095395;23;19909;-73
2022/09/23 23:35:55;;;;;;;;;;;18.20;86.90;;;;;;6095877;23;19909;-71
2022/09/23 23:38:22;;;;;;;;;;;18.20;86.10;;;;;;6095219;23;19905;-70
2022/09/23 23:40:51;;;;;;;;;;;18.20;86.90;;;;;;6095137;23;19988;-72
2022/09/23 23:43:18;;;;;;;;;;;18.20;86.70;;;;;;6094796;23;19905;-73
2022/09/23 23:45:45;;;;;;;;;;;18.10;86.40;;;;;;6094164;23;19905;-73
2022/09/23 23:48:12;;;;;;;;;;;18.00;84.90;;;;;;6095296;23;19959;-74
2022/09/23 23:50:39;;;;;;;;;;;18.00;85.30;;;;;;6094696;23;19909;-77
2022/09/23 23:53:06;;;;;;;;;;;18.10;83.90;;;;;;6068472;23;19905;-77
2022/09/23 23:55:32;;;;;;;;;;;18.00;83.80;;;;;;6094508;23;19937;-76
2022/09/23 23:58:01;;;;;;;;;;;17.90;84.80;;;;;;6067931;23;19901;-75
